sensor_id;sensor_type;location;lat;lon;timestamp;P1;durP1;ratioP1;P2;durP2;ratioP2
6185;SDS011;3126;52.738;8.316;2023-07-29T00:01:24;20.08;;;13.93;;
6185;SDS011;3126;52.738;8.316;2023-07-29T00:06:25;22.45;;;15.43;;
6185;SDS011;3126;52.738;8.316;2023-07-29T00:11:26;22.20;;;14.77;;
6185;SDS011;3126;52.738;8.316;2023-07-29T00:16:27;25.17;;;15.75;;
6185;SDS011;3126;52.738;8.316;2023-07-29T00:21:28;20.33;;;15.50;;
6185;SDS011;3126;52.738;8.316;2023-07-29T00:26:29;23.98;;;15.30;;
6185;SDS011;3126;52.738;8.316;2023-07-29T00:31:31;23.55;;;16.50;;
6185;SDS011;3126;52.738;8.316;2023-07-29T00:36:32;26.60;;;15.93;;
6185;SDS011;3126;52.738;8.316;2023-07-29T00:41:33;24.35;;;15.30;;
6185;SDS011;3126;52.738;8.316;2023-07-29T00:46:34;24.02;;;15.75;;
6185;SDS011;3126;52.738;8.316;2023-07-29T00:51:35;21.83;;;15.60;;
6185;SDS011;3126;52.738;8.316;2023-07-29T00:56:36;23.75;;;14.23;;
6185;SDS011;3126;52.738;8.316;2023-07-29T01:01:37;19.85;;;13.50;;
6185;SDS011;3126;52.738;8.316;2023-07-29T01:06:46;18.85;;;14.15;;
6185;SDS011;3126;52.738;8.316;2023-07-29T01:17:03;21.15;;;15.02;;
6185;SDS011;3126;52.738;8.316;2023-07-29T01:22:04;23.13;;;14.65;;
6185;SDS011;3126;52.738;8.316;2023-07-29T01:27:08;21.75;;;14.75;;
6185;SDS011;3126;52.738;8.316;2023-07-29T01:32:11;24.75;;;14.57;;
6185;SDS011;3126;52.738;8.316;2023-07-29T01:37:13;23.77;;;14.73;;
6185;SDS011;3126;52.738;8.316;2023-07-29T01:42:15;21.75;;;14.63;;
6185;SDS011;3126;52.738;8.316;2023-07-29T01:47:18;20.63;;;13.80;;
6185;SDS011;3126;52.738;8.316;2023-07-29T01:52:20;23.90;;;14.73;;
6185;SDS011;3126;52.738;8.316;2023-07-29T01:57:22;22.75;;;13.43;;
6185;SDS011;3126;52.738;8.316;2023-07-29T02:02:23;16.33;;;11.95;;
6185;SDS011;3126;52.738;8.316;2023-07-29T02:07:24;18.25;;;12.30;;
6185;SDS011;3126;52.738;8.316;2023-07-29T02:12:27;16.90;;;12.27;;
6185;SDS011;3126;52.738;8.316;2023-07-29T02:17:28;19.30;;;11.20;;
6185;SDS011;3126;52.738;8.316;2023-07-29T02:22:28;15.75;;;11.55;;
6185;SDS011;3126;52.738;8.316;2023-07-29T02:27:30;14.43;;;10.27;;
6185;SDS011;3126;52.738;8.316;2023-07-29T02:32:31;16.35;;;11.05;;
6185;SDS011;3126;52.738;8.316;2023-07-29T02:37:31;15.73;;;11.45;;
6185;SDS011;3126;52.738;8.316;2023-07-29T02:42:32;14.27;;;11.98;;
6185;SDS011;3126;52.738;8.316;2023-07-29T02:47:33;14.85;;;10.50;;
6185;SDS011;3126;52.738;8.316;2023-07-29T02:52:34;14.13;;;11.02;;
6185;SDS011;3126;52.738;8.316;2023-07-29T02:57:35;13.27;;;10.18;;
6185;SDS011;3126;52.738;8.316;2023-07-29T03:02:36;13.43;;;10.27;;
6185;SDS011;3126;52.738;8.316;2023-07-29T03:07:37;14.18;;;10.05;;
6185;SDS011;3126;52.738;8.316;2023-07-29T03:12:38;15.88;;;10.32;;
6185;SDS011;3126;52.738;8.316;2023-07-29T03:17:39;13.18;;;10.43;;
6185;SDS011;3126;52.738;8.316;2023-07-29T03:22:40;13.90;;;9.70;;
6185;SDS011;3126;52.738;8.316;2023-07-29T03:27:41;12.60;;;8.95;;
6185;SDS011;3126;52.738;8.316;2023-07-29T03:32:43;13.18;;;9.70;;
6185;SDS011;3126;52.738;8.316;2023-07-29T03:37:45;11.93;;;9.13;;
6185;SDS011;3126;52.738;8.316;2023-07-29T03:42:48;12.00;;;9.45;;
6185;SDS011;3126;52.738;8.316;2023-07-29T03:47:49;12.10;;;8.77;;
6185;SDS011;3126;52.738;8.316;2023-07-29T03:52:51;11.85;;;10.13;;
6185;SDS011;3126;52.738;8.316;2023-07-29T03:57:54;12.77;;;10.32;;
6185;SDS011;3126;52.738;8.316;2023-07-29T04:02:55;15.82;;;10.55;;
6185;SDS011;3126;52.738;8.316;2023-07-29T04:07:56;11.70;;;9.93;;
6185;SDS011;3126;52.738;8.316;2023-07-29T04:12:57;16.77;;;12.02;;
6185;SDS011;3126;52.738;8.316;2023-07-29T04:17:59;14.77;;;11.35;;
6185;SDS011;3126;52.738;8.316;2023-07-29T04:23:00;13.90;;;11.02;;
6185;SDS011;3126;52.738;8.316;2023-07-29T04:28:00;16.23;;;12.73;;
6185;SDS011;3126;52.738;8.316;2023-07-29T04:33:03;17.02;;;12.98;;
6185;SDS011;3126;52.738;8.316;2023-07-29T04:38:04;18.15;;;13.45;;
6185;SDS011;3126;52.738;8.316;2023-07-29T04:43:05;16.48;;;12.65;;
6185;SDS011;3126;52.738;8.316;2023-07-29T04:48:06;17.60;;;13.43;;
6185;SDS011;3126;52.738;8.316;2023-07-29T04:53:07;17.50;;;13.05;;
6185;SDS011;3126;52.738;8.316;2023-07-29T04:58:09;16.65;;;13.48;;
6185;SDS011;3126;52.738;8.316;2023-07-29T05:03:10;18.90;;;14.05;;
6185;SDS011;3126;52.738;8.316;2023-07-29T05:08:11;18.88;;;14.00;;
6185;SDS011;3126;52.738;8.316;2023-07-29T05:13:12;18.65;;;13.95;;
6185;SDS011;3126;52.738;8.316;2023-07-29T05:18:13;18.25;;;14.73;;
6185;SDS011;3126;52.738;8.316;2023-07-29T05:23:15;18.85;;;14.30;;
6185;SDS011;3126;52.738;8.316;2023-07-29T05:28:16;20.20;;;14.50;;
6185;SDS011;3126;52.738;8.316;2023-07-29T05:33:17;18.58;;;14.90;;
6185;SDS011;3126;52.738;8.316;2023-07-29T05:38:18;18.25;;;14.90;;
6185;SDS011;3126;52.738;8.316;2023-07-29T05:43:19;19.38;;;14.48;;
6185;SDS011;3126;52.738;8.316;2023-07-29T05:48:20;22.15;;;16.23;;
6185;SDS011;3126;52.738;8.316;2023-07-29T05:53:21;18.67;;;14.68;;
6185;SDS011;3126;52.738;8.316;2023-07-29T05:58:21;19.10;;;14.95;;
6185;SDS011;3126;52.738;8.316;2023-07-29T06:03:23;15.50;;;13.55;;
6185;SDS011;3126;52.738;8.316;2023-07-29T06:08:24;19.10;;;15.18;;
6185;SDS011;3126;52.738;8.316;2023-07-29T06:13:28;17.73;;;14.85;;
6185;SDS011;3126;52.738;8.316;2023-07-29T06:18:29;19.40;;;15.48;;
6185;SDS011;3126;52.738;8.316;2023-07-29T06:23:30;17.90;;;15.20;;
6185;SDS011;3126;52.738;8.316;2023-07-29T06:28:31;15.05;;;13.45;;
6185;SDS011;3126;52.738;8.316;2023-07-29T06:33:32;16.42;;;12.35;;
6185;SDS011;3126;52.738;8.316;2023-07-29T06:38:33;16.27;;;12.13;;
6185;SDS011;3126;52.738;8.316;2023-07-29T06:43:34;12.13;;;10.82;;
6185;SDS011;3126;52.738;8.316;2023-07-29T06:48:35;12.10;;;10.75;;
6185;SDS011;3126;52.738;8.316;2023-07-29T06:53:35;10.18;;;9.05;;
6185;SDS011;3126;52.738;8.316;2023-07-29T06:58:36;12.27;;;10.32;;
6185;SDS011;3126;52.738;8.316;2023-07-29T07:03:37;12.15;;;10.20;;
6185;SDS011;3126;52.738;8.316;2023-07-29T07:08:39;11.85;;;9.70;;
6185;SDS011;3126;52.738;8.316;2023-07-29T07:13:41;11.88;;;9.20;;
6185;SDS011;3126;52.738;8.316;2023-07-29T07:18:42;11.20;;;9.55;;
6185;SDS011;3126;52.738;8.316;2023-07-29T07:23:42;12.15;;;9.82;;
6185;SDS011;3126;52.738;8.316;2023-07-29T07:28:43;13.80;;;10.48;;
6185;SDS011;3126;52.738;8.316;2023-07-29T07:33:44;11.43;;;10.13;;
6185;SDS011;3126;52.738;8.316;2023-07-29T07:38:45;10.60;;;9.50;;
6185;SDS011;3126;52.738;8.316;2023-07-29T07:43:46;10.40;;;9.13;;
6185;SDS011;3126;52.738;8.316;2023-07-29T07:48:47;13.10;;;9.15;;
6185;SDS011;3126;52.738;8.316;2023-07-29T07:53:48;10.25;;;8.82;;
6185;SDS011;3126;52.738;8.316;2023-07-29T07:58:49;12.32;;;9.75;;
6185;SDS011;3126;52.738;8.316;2023-07-29T08:03:51;10.15;;;8.73;;
6185;SDS011;3126;52.738;8.316;2023-07-29T08:08:52;14.02;;;10.20;;
6185;SDS011;3126;52.738;8.316;2023-07-29T08:13:53;11.70;;;10.45;;
6185;SDS011;3126;52.738;8.316;2023-07-29T08:18:54;13.45;;;12.05;;
6185;SDS011;3126;52.738;8.316;2023-07-29T08:23:55;17.17;;;11.25;;
6185;SDS011;3126;52.738;8.316;2023-07-29T08:28:57;14.40;;;11.20;;
6185;SDS011;3126;52.738;8.316;2023-07-29T08:33:58;9.05;;;7.47;;
6185;SDS011;3126;52.738;8.316;2023-07-29T08:38:59;7.55;;;6.85;;
6185;SDS011;3126;52.738;8.316;2023-07-29T08:49:01;4.43;;;4.03;;
6185;SDS011;3126;52.738;8.316;2023-07-29T08:54:02;4.07;;;3.67;;
6185;SDS011;3126;52.738;8.316;2023-07-29T08:59:03;4.63;;;3.65;;
6185;SDS011;3126;52.738;8.316;2023-07-29T09:04:05;4.85;;;3.63;;
6185;SDS011;3126;52.738;8.316;2023-07-29T09:09:07;4.93;;;3.60;;
6185;SDS011;3126;52.738;8.316;2023-07-29T09:14:09;3.92;;;3.40;;
6185;SDS011;3126;52.738;8.316;2023-07-29T09:19:10;4.40;;;3.60;;
6185;SDS011;3126;52.738;8.316;2023-07-29T09:24:12;4.53;;;3.30;;
6185;SDS011;3126;52.738;8.316;2023-07-29T09:29:21;3.67;;;3.03;;
6185;SDS011;3126;52.738;8.316;2023-07-29T09:34:22;3.05;;;2.83;;
6185;SDS011;3126;52.738;8.316;2023-07-29T09:39:23;3.28;;;2.60;;
6185;SDS011;3126;52.738;8.316;2023-07-29T09:44:24;3.65;;;3.30;;
6185;SDS011;3126;52.738;8.316;2023-07-29T09:49:25;4.20;;;2.70;;
6185;SDS011;3126;52.738;8.316;2023-07-29T09:54:26;2.45;;;2.25;;
6185;SDS011;3126;52.738;8.316;2023-07-29T09:59:28;3.70;;;2.72;;
6185;SDS011;3126;52.738;8.316;2023-07-29T10:04:34;2.40;;;2.20;;
6185;SDS011;3126;52.738;8.316;2023-07-29T10:09:36;2.13;;;2.00;;
6185;SDS011;3126;52.738;8.316;2023-07-29T10:14:38;1.88;;;1.70;;
6185;SDS011;3126;52.738;8.316;2023-07-29T10:19:39;2.92;;;2.45;;
6185;SDS011;3126;52.738;8.316;2023-07-29T10:24:42;1.40;;;1.38;;
6185;SDS011;3126;52.738;8.316;2023-07-29T10:29:44;2.15;;;1.80;;
6185;SDS011;3126;52.738;8.316;2023-07-29T10:34:47;1.90;;;1.65;;
6185;SDS011;3126;52.738;8.316;2023-07-29T10:39:52;3.45;;;2.42;;
6185;SDS011;3126;52.738;8.316;2023-07-29T10:44:54;3.78;;;2.30;;
6185;SDS011;3126;52.738;8.316;2023-07-29T10:49:56;3.28;;;2.20;;
6185;SDS011;3126;52.738;8.316;2023-07-29T10:59:59;2.20;;;2.00;;
6185;SDS011;3126;52.738;8.316;2023-07-29T11:05:04;2.10;;;1.90;;
6185;SDS011;3126;52.738;8.316;2023-07-29T11:10:06;2.95;;;2.47;;
6185;SDS011;3126;52.738;8.316;2023-07-29T11:15:22;2.00;;;1.90;;
6185;SDS011;3126;52.738;8.316;2023-07-29T11:20:25;4.88;;;2.70;;
6185;SDS011;3126;52.738;8.316;2023-07-29T11:25:27;2.20;;;2.00;;
6185;SDS011;3126;52.738;8.316;2023-07-29T11:30:29;2.72;;;2.35;;
6185;SDS011;3126;52.738;8.316;2023-07-29T11:35:31;2.88;;;2.05;;
6185;SDS011;3126;52.738;8.316;2023-07-29T11:40:33;3.80;;;1.90;;
6185;SDS011;3126;52.738;8.316;2023-07-29T11:45:34;3.78;;;2.00;;
6185;SDS011;3126;52.738;8.316;2023-07-29T11:55:37;1.75;;;1.50;;
6185;SDS011;3126;52.738;8.316;2023-07-29T12:00:38;2.05;;;1.60;;
6185;SDS011;3126;52.738;8.316;2023-07-29T12:05:40;1.85;;;1.70;;
6185;SDS011;3126;52.738;8.316;2023-07-29T12:10:41;2.33;;;1.77;;
6185;SDS011;3126;52.738;8.316;2023-07-29T12:15:43;1.23;;;1.23;;
6185;SDS011;3126;52.738;8.316;2023-07-29T12:20:45;2.35;;;2.15;;
6185;SDS011;3126;52.738;8.316;2023-07-29T12:25:46;2.65;;;1.38;;
6185;SDS011;3126;52.738;8.316;2023-07-29T12:30:47;1.50;;;1.20;;
6185;SDS011;3126;52.738;8.316;2023-07-29T12:35:50;2.55;;;1.50;;
6185;SDS011;3126;52.738;8.316;2023-07-29T12:45:52;3.08;;;1.50;;
6185;SDS011;3126;52.738;8.316;2023-07-29T12:50:53;2.65;;;1.73;;
6185;SDS011;3126;52.738;8.316;2023-07-29T12:55:54;2.67;;;1.77;;
6185;SDS011;3126;52.738;8.316;2023-07-29T13:00:55;1.45;;;1.35;;
6185;SDS011;3126;52.738;8.316;2023-07-29T13:05:56;2.03;;;1.92;;
6185;SDS011;3126;52.738;8.316;2023-07-29T13:10:57;2.08;;;1.73;;
6185;SDS011;3126;52.738;8.316;2023-07-29T13:15:58;4.00;;;2.05;;
6185;SDS011;3126;52.738;8.316;2023-07-29T13:20:59;3.50;;;2.08;;
6185;SDS011;3126;52.738;8.316;2023-07-29T13:26:01;2.58;;;1.92;;
6185;SDS011;3126;52.738;8.316;2023-07-29T13:31:02;2.05;;;1.95;;
6185;SDS011;3126;52.738;8.316;2023-07-29T13:36:03;4.13;;;1.88;;
6185;SDS011;3126;52.738;8.316;2023-07-29T13:41:04;3.13;;;2.20;;
6185;SDS011;3126;52.738;8.316;2023-07-29T13:46:05;2.80;;;1.95;;
6185;SDS011;3126;52.738;8.316;2023-07-29T13:51:07;2.03;;;1.92;;
6185;SDS011;3126;52.738;8.316;2023-07-29T13:56:08;2.47;;;2.20;;
6185;SDS011;3126;52.738;8.316;2023-07-29T14:01:09;2.28;;;2.10;;
6185;SDS011;3126;52.738;8.316;2023-07-29T14:06:10;2.28;;;2.17;;
6185;SDS011;3126;52.738;8.316;2023-07-29T14:11:11;2.83;;;2.63;;
6185;SDS011;3126;52.738;8.316;2023-07-29T14:16:12;2.53;;;2.30;;
6185;SDS011;3126;52.738;8.316;2023-07-29T14:21:14;4.15;;;2.67;;
6185;SDS011;3126;52.738;8.316;2023-07-29T14:26:15;2.55;;;2.35;;
6185;SDS011;3126;52.738;8.316;2023-07-29T14:31:16;2.70;;;2.50;;
6185;SDS011;3126;52.738;8.316;2023-07-29T14:36:17;4.47;;;3.03;;
6185;SDS011;3126;52.738;8.316;2023-07-29T14:41:18;3.00;;;2.63;;
6185;SDS011;3126;52.738;8.316;2023-07-29T14:46:19;2.67;;;2.47;;
6185;SDS011;3126;52.738;8.316;2023-07-29T14:51:20;2.47;;;2.20;;
6185;SDS011;3126;52.738;8.316;2023-07-29T14:56:22;2.40;;;2.05;;
6185;SDS011;3126;52.738;8.316;2023-07-29T15:01:23;4.00;;;2.80;;
6185;SDS011;3126;52.738;8.316;2023-07-29T15:06:24;2.35;;;2.25;;
6185;SDS011;3126;52.738;8.316;2023-07-29T15:11:25;2.10;;;1.80;;
6185;SDS011;3126;52.738;8.316;2023-07-29T15:16:26;2.42;;;2.22;;
6185;SDS011;3126;52.738;8.316;2023-07-29T15:21:27;2.97;;;1.98;;
6185;SDS011;3126;52.738;8.316;2023-07-29T15:26:29;2.03;;;1.92;;
6185;SDS011;3126;52.738;8.316;2023-07-29T15:31:31;1.80;;;1.70;;
6185;SDS011;3126;52.738;8.316;2023-07-29T15:36:32;1.52;;;1.33;;
6185;SDS011;3126;52.738;8.316;2023-07-29T15:41:33;1.60;;;1.42;;
6185;SDS011;3126;52.738;8.316;2023-07-29T15:46:34;1.50;;;1.40;;
6185;SDS011;3126;52.738;8.316;2023-07-29T15:51:35;1.60;;;1.50;;
6185;SDS011;3126;52.738;8.316;2023-07-29T15:56:36;2.03;;;1.70;;
6185;SDS011;3126;52.738;8.316;2023-07-29T16:01:39;1.10;;;1.10;;
6185;SDS011;3126;52.738;8.316;2023-07-29T16:06:40;1.80;;;1.08;;
6185;SDS011;3126;52.738;8.316;2023-07-29T16:11:42;3.20;;;1.25;;
6185;SDS011;3126;52.738;8.316;2023-07-29T16:16:43;1.23;;;1.20;;
6185;SDS011;3126;52.738;8.316;2023-07-29T16:21:44;2.92;;;1.40;;
6185;SDS011;3126;52.738;8.316;2023-07-29T16:26:45;1.67;;;1.58;;
6185;SDS011;3126;52.738;8.316;2023-07-29T16:31:46;1.90;;;1.80;;
6185;SDS011;3126;52.738;8.316;2023-07-29T16:36:47;3.25;;;2.28;;
6185;SDS011;3126;52.738;8.316;2023-07-29T16:41:48;1.10;;;1.10;;
6185;SDS011;3126;52.738;8.316;2023-07-29T16:46:49;1.10;;;1.10;;
6185;SDS011;3126;52.738;8.316;2023-07-29T16:51:50;0.77;;;0.77;;
6185;SDS011;3126;52.738;8.316;2023-07-29T16:56:52;0.90;;;0.90;;
6185;SDS011;3126;52.738;8.316;2023-07-29T17:01:53;1.15;;;1.00;;
6185;SDS011;3126;52.738;8.316;2023-07-29T17:06:55;1.25;;;0.65;;
6185;SDS011;3126;52.738;8.316;2023-07-29T17:11:57;0.80;;;0.80;;
6185;SDS011;3126;52.738;8.316;2023-07-29T17:16:59;1.05;;;0.93;;
6185;SDS011;3126;52.738;8.316;2023-07-29T17:22:00;1.77;;;1.10;;
6185;SDS011;3126;52.738;8.316;2023-07-29T17:27:01;2.17;;;1.40;;
6185;SDS011;3126;52.738;8.316;2023-07-29T17:32:02;1.33;;;1.20;;
6185;SDS011;3126;52.738;8.316;2023-07-29T17:37:03;3.22;;;1.30;;
6185;SDS011;3126;52.738;8.316;2023-07-29T17:42:04;1.73;;;1.10;;
6185;SDS011;3126;52.738;8.316;2023-07-29T17:47:06;2.42;;;1.40;;
6185;SDS011;3126;52.738;8.316;2023-07-29T17:52:07;1.20;;;1.10;;
6185;SDS011;3126;52.738;8.316;2023-07-29T17:57:09;1.67;;;1.58;;
6185;SDS011;3126;52.738;8.316;2023-07-29T18:02:10;1.67;;;1.58;;
6185;SDS011;3126;52.738;8.316;2023-07-29T18:07:11;2.67;;;1.67;;
6185;SDS011;3126;52.738;8.316;2023-07-29T18:12:12;1.90;;;1.80;;
6185;SDS011;3126;52.738;8.316;2023-07-29T18:17:13;1.70;;;1.60;;
6185;SDS011;3126;52.738;8.316;2023-07-29T18:22:14;1.80;;;1.70;;
6185;SDS011;3126;52.738;8.316;2023-07-29T18:27:15;2.83;;;2.60;;
6185;SDS011;3126;52.738;8.316;2023-07-29T18:32:16;2.15;;;1.95;;
6185;SDS011;3126;52.738;8.316;2023-07-29T18:37:17;2.33;;;2.13;;
6185;SDS011;3126;52.738;8.316;2023-07-29T18:42:18;2.92;;;2.15;;
6185;SDS011;3126;52.738;8.316;2023-07-29T18:47:20;3.03;;;2.75;;
6185;SDS011;3126;52.738;8.316;2023-07-29T18:52:24;2.70;;;2.50;;
6185;SDS011;3126;52.738;8.316;2023-07-29T18:57:26;2.90;;;2.70;;
6185;SDS011;3126;52.738;8.316;2023-07-29T19:02:27;3.33;;;3.00;;
6185;SDS011;3126;52.738;8.316;2023-07-29T19:07:28;4.38;;;3.15;;
6185;SDS011;3126;52.738;8.316;2023-07-29T19:12:32;4.18;;;2.60;;
6185;SDS011;3126;52.738;8.316;2023-07-29T19:17:34;3.25;;;3.05;;
6185;SDS011;3126;52.738;8.316;2023-07-29T19:22:35;3.30;;;3.00;;
6185;SDS011;3126;52.738;8.316;2023-07-29T19:27:36;3.25;;;2.35;;
6185;SDS011;3126;52.738;8.316;2023-07-29T19:32:38;3.08;;;2.72;;
6185;SDS011;3126;52.738;8.316;2023-07-29T19:37:40;2.78;;;2.58;;
6185;SDS011;3126;52.738;8.316;2023-07-29T19:42:42;3.15;;;2.88;;
6185;SDS011;3126;52.738;8.316;2023-07-29T19:47:43;3.30;;;2.67;;
6185;SDS011;3126;52.738;8.316;2023-07-29T19:52:44;3.83;;;3.53;;
6185;SDS011;3126;52.738;8.316;2023-07-29T19:57:45;4.68;;;4.20;;
6185;SDS011;3126;52.738;8.316;2023-07-29T20:02:46;7.90;;;3.83;;
6185;SDS011;3126;52.738;8.316;2023-07-29T20:07:47;3.58;;;3.28;;
6185;SDS011;3126;52.738;8.316;2023-07-29T20:12:48;4.45;;;4.05;;
6185;SDS011;3126;52.738;8.316;2023-07-29T20:17:50;4.28;;;3.75;;
6185;SDS011;3126;52.738;8.316;2023-07-29T20:22:50;4.63;;;4.18;;
6185;SDS011;3126;52.738;8.316;2023-07-29T20:27:52;4.50;;;4.10;;
6185;SDS011;3126;52.738;8.316;2023-07-29T20:32:54;3.92;;;3.63;;
6185;SDS011;3126;52.738;8.316;2023-07-29T20:37:55;3.75;;;3.45;;
6185;SDS011;3126;52.738;8.316;2023-07-29T20:42:56;3.35;;;3.10;;
6185;SDS011;3126;52.738;8.316;2023-07-29T20:47:57;3.08;;;2.80;;
6185;SDS011;3126;52.738;8.316;2023-07-29T20:52:58;2.60;;;2.40;;
6185;SDS011;3126;52.738;8.316;2023-07-29T20:57:59;2.65;;;2.50;;
6185;SDS011;3126;52.738;8.316;2023-07-29T21:03:01;2.40;;;2.25;;
6185;SDS011;3126;52.738;8.316;2023-07-29T21:08:02;2.75;;;2.42;;
6185;SDS011;3126;52.738;8.316;2023-07-29T21:13:03;2.67;;;2.35;;
6185;SDS011;3126;52.738;8.316;2023-07-29T21:18:04;2.58;;;2.25;;
6185;SDS011;3126;52.738;8.316;2023-07-29T21:23:05;2.80;;;2.47;;
6185;SDS011;3126;52.738;8.316;2023-07-29T21:28:06;3.00;;;2.70;;
6185;SDS011;3126;52.738;8.316;2023-07-29T21:33:07;4.38;;;2.97;;
6185;SDS011;3126;52.738;8.316;2023-07-29T21:38:08;2.97;;;2.78;;
6185;SDS011;3126;52.738;8.316;2023-07-29T21:43:09;3.33;;;3.03;;
6185;SDS011;3126;52.738;8.316;2023-07-29T21:48:10;3.42;;;3.08;;
6185;SDS011;3126;52.738;8.316;2023-07-29T21:53:11;4.00;;;3.63;;
6185;SDS011;3126;52.738;8.316;2023-07-29T21:58:12;4.35;;;3.95;;
6185;SDS011;3126;52.738;8.316;2023-07-29T22:03:14;4.63;;;3.92;;
6185;SDS011;3126;52.738;8.316;2023-07-29T22:08:14;5.25;;;4.85;;
6185;SDS011;3126;52.738;8.316;2023-07-29T22:13:16;5.00;;;4.50;;
6185;SDS011;3126;52.738;8.316;2023-07-29T22:18:17;4.32;;;3.92;;
6185;SDS011;3126;52.738;8.316;2023-07-29T22:23:18;3.85;;;3.55;;
6185;SDS011;3126;52.738;8.316;2023-07-29T22:28:19;4.55;;;3.00;;
6185;SDS011;3126;52.738;8.316;2023-07-29T22:33:20;4.50;;;3.55;;
6185;SDS011;3126;52.738;8.316;2023-07-29T22:38:21;3.67;;;2.78;;
6185;SDS011;3126;52.738;8.316;2023-07-29T22:43:22;3.40;;;3.03;;
6185;SDS011;3126;52.738;8.316;2023-07-29T22:48:24;3.42;;;2.75;;
6185;SDS011;3126;52.738;8.316;2023-07-29T22:53:25;3.38;;;2.85;;
6185;SDS011;3126;52.738;8.316;2023-07-29T22:58:26;3.22;;;2.42;;
6185;SDS011;3126;52.738;8.316;2023-07-29T23:03:29;3.38;;;2.55;;
6185;SDS011;3126;52.738;8.316;2023-07-29T23:08:30;4.13;;;3.17;;
6185;SDS011;3126;52.738;8.316;2023-07-29T23:13:31;3.38;;;3.08;;
6185;SDS011;3126;52.738;8.316;2023-07-29T23:18:32;3.55;;;3.00;;
6185;SDS011;3126;52.738;8.316;2023-07-29T23:23:33;3.53;;;2.70;;
6185;SDS011;3126;52.738;8.316;2023-07-29T23:28:34;5.35;;;3.15;;
6185;SDS011;3126;52.738;8.316;2023-07-29T23:33:35;3.72;;;3.03;;
6185;SDS011;3126;52.738;8.316;2023-07-29T23:38:36;3.70;;;2.55;;
6185;SDS011;3126;52.738;8.316;2023-07-29T23:43:37;3.53;;;3.10;;
6185;SDS011;3126;52.738;8.316;2023-07-29T23:48:38;5.07;;;3.63;;
6185;SDS011;3126;52.738;8.316;2023-07-29T23:53:39;3.30;;;2.70;;
6185;SDS011;3126;52.738;8.316;2023-07-29T23:58:40;4.22;;;3.45;;
